createdAt,value
2023-03-10T00:04:19.511Z,15.40
2023-03-10T00:09:21.958Z,15.50
2023-03-10T00:14:23.998Z,15.30
2023-03-10T00:19:26.688Z,15.40
2023-03-10T00:24:28.766Z,15.40
2023-03-10T00:29:31.235Z,15.70
2023-03-10T00:34:33.644Z,15.50
2023-03-10T00:39:35.745Z,15.30
2023-03-10T00:44:38.695Z,15.30
2023-03-10T00:49:40.954Z,15.20
2023-03-10T00:54:43.083Z,15.20
2023-03-10T00:59:50.314Z,15.40
2023-03-10T01:04:52.895Z,15.00
2023-03-10T01:09:54.964Z,15.30
2023-03-10T01:14:57.038Z,15.10
2023-03-10T01:19:59.225Z,15.20
2023-03-10T01:25:03.606Z,15.20
2023-03-10T01:30:06.077Z,15.10
2023-03-10T01:35:08.307Z,15.10
2023-03-10T01:40:16.146Z,15.10
2023-03-10T01:45:18.113Z,15.00
2023-03-10T01:50:20.961Z,15.00
2023-03-10T01:55:31.004Z,14.90
2023-03-10T02:00:33.197Z,14.80
2023-03-10T02:05:41.617Z,14.60
2023-03-10T02:10:44.272Z,14.70
2023-03-10T02:15:46.496Z,14.70
2023-03-10T02:21:12.773Z,14.70
2023-03-10T02:26:24.061Z,14.80
2023-03-10T02:31:26.882Z,14.40
2023-03-10T02:36:29.030Z,14.60
2023-03-10T02:41:36.056Z,14.50
2023-03-10T02:46:38.979Z,14.50
2023-03-10T02:51:42.229Z,14.50
2023-03-10T02:56:45.788Z,14.50
2023-03-10T03:01:48.405Z,14.50
2023-03-10T03:06:52.389Z,14.50
2023-03-10T03:11:55.807Z,14.50
2023-03-10T03:16:58.057Z,14.50
2023-03-10T03:22:02.450Z,14.70
2023-03-10T03:27:05.406Z,14.50
2023-03-10T03:32:07.678Z,14.50
2023-03-10T03:37:10.042Z,14.40
2023-03-10T03:42:12.558Z,14.40
2023-03-10T03:47:16.575Z,14.40
2023-03-10T03:52:19.407Z,14.30
2023-03-10T03:57:21.753Z,14.30
2023-03-10T04:02:23.978Z,14.30
2023-03-10T04:07:26.527Z,14.20
2023-03-10T04:12:29.578Z,14.30
2023-03-10T04:17:32.444Z,14.00
2023-03-10T04:22:35.230Z,14.20
2023-03-10T04:27:37.619Z,14.20
2023-03-10T04:32:40.258Z,14.20
2023-03-10T04:37:44.504Z,15.30
2023-03-10T04:42:47.400Z,14.20
2023-03-10T04:47:49.917Z,14.20
2023-03-10T04:52:52.236Z,14.20
2023-03-10T04:57:55.324Z,14.30
2023-03-10T05:02:57.739Z,14.20
2023-03-10T05:07:59.935Z,14.40
2023-03-10T05:13:02.045Z,14.20
2023-03-10T05:18:04.441Z,13.80
2023-03-10T05:23:07.103Z,14.40
2023-03-10T05:28:09.503Z,14.30
2023-03-10T05:33:11.803Z,14.40
2023-03-10T05:38:13.970Z,14.20
2023-03-10T05:43:17.782Z,14.30
2023-03-10T05:48:20.354Z,14.30
2023-03-10T05:53:22.732Z,14.20
2023-03-10T05:58:25.385Z,14.30
2023-03-10T06:03:29.918Z,14.20
2023-03-10T06:08:32.350Z,14.40
2023-03-10T06:13:34.776Z,14.30
2023-03-10T06:18:36.877Z,14.00
2023-03-10T06:23:39.329Z,14.00
2023-03-10T06:33:44.167Z,14.10
2023-03-10T06:38:46.791Z,14.10
2023-03-10T06:43:48.782Z,14.00
2023-03-10T06:48:51.072Z,14.40
2023-03-10T06:53:55.031Z,14.10
2023-03-10T06:58:57.138Z,14.00
2023-03-10T07:04:01.070Z,14.10
2023-03-10T07:09:03.703Z,14.40
2023-03-10T07:14:05.803Z,14.30
2023-03-10T07:19:07.798Z,14.20
2023-03-10T07:24:09.802Z,14.60
2023-03-10T07:29:12.085Z,14.50
2023-03-10T07:34:14.198Z,14.50
2023-03-10T07:39:16.201Z,14.80
2023-03-10T07:44:18.290Z,14.50
2023-03-10T07:49:22.183Z,14.20
2023-03-10T07:54:24.586Z,14.10
2023-03-10T07:59:26.676Z,13.80
2023-03-10T08:04:28.829Z,13.60
2023-03-10T08:09:31.128Z,13.70
2023-03-10T08:14:33.241Z,13.80
2023-03-10T08:19:37.860Z,13.70
2023-03-10T08:24:40.387Z,13.70
2023-03-10T08:29:42.537Z,13.70
2023-03-10T08:34:44.625Z,13.70
2023-03-10T08:39:46.713Z,13.80
2023-03-10T08:44:48.743Z,13.80
2023-03-10T08:49:50.757Z,13.80
2023-03-10T08:54:52.766Z,13.70
2023-03-10T08:59:54.742Z,13.70
2023-03-10T09:04:56.753Z,13.90
2023-03-10T09:09:58.925Z,14.00
2023-03-10T09:15:01.710Z,14.10
2023-03-10T09:20:06.381Z,14.30
2023-03-10T09:25:09.908Z,14.50
2023-03-10T09:30:12.082Z,14.70
2023-03-10T09:35:14.230Z,14.70
2023-03-10T09:40:18.513Z,14.80
2023-03-10T09:45:26.436Z,14.70
2023-03-10T09:50:38.626Z,14.90
2023-03-10T09:55:47.788Z,15.00
2023-03-10T10:00:50.847Z,15.10
2023-03-10T10:05:53.889Z,15.10
2023-03-10T10:10:57.223Z,15.20
2023-03-10T10:16:24.699Z,15.10
2023-03-10T10:21:46.108Z,15.20
2023-03-10T10:26:48.256Z,15.30
2023-03-10T10:32:04.675Z,15.40
2023-03-10T10:37:24.269Z,15.40
2023-03-10T10:42:30.804Z,15.50
2023-03-10T10:47:34.473Z,15.50
2023-03-10T10:52:36.826Z,15.60
2023-03-10T10:57:46.068Z,15.40
2023-03-10T11:02:48.272Z,15.60
2023-03-10T11:07:50.839Z,15.60
2023-03-10T11:13:22.210Z,15.60
2023-03-10T11:18:26.800Z,15.50
2023-03-10T11:23:38.421Z,15.50
2023-03-10T11:28:46.484Z,15.30
2023-03-10T11:33:48.528Z,15.40
2023-03-10T11:38:51.847Z,15.40
2023-03-10T11:44:07.904Z,15.40
2023-03-10T11:49:14.816Z,15.40
2023-03-10T11:54:16.808Z,15.20
2023-03-10T11:59:22.055Z,15.30
2023-03-10T12:04:24.049Z,15.20
2023-03-10T12:09:38.351Z,15.10
2023-03-10T12:14:43.731Z,15.10
2023-03-10T12:20:09.007Z,15.00
2023-03-10T12:25:29.664Z,14.90
2023-03-10T12:30:43.110Z,14.90
2023-03-10T12:35:47.575Z,14.80
2023-03-10T12:40:51.249Z,14.80
2023-03-10T12:45:53.350Z,15.00
2023-03-10T12:51:00.799Z,15.10
2023-03-10T12:56:11.855Z,15.30
2023-03-10T13:01:17.038Z,15.60
2023-03-10T13:06:20.883Z,15.90
2023-03-10T13:11:27.339Z,15.90
2023-03-10T13:16:29.500Z,16.10
2023-03-10T13:21:33.057Z,16.30
2023-03-10T13:26:35.061Z,16.70
2023-03-10T13:31:37.130Z,16.80
2023-03-10T13:36:39.834Z,17.00
2023-03-10T13:41:43.874Z,17.10
2023-03-10T13:46:47.683Z,17.10
2023-03-10T13:52:00.227Z,17.10
2023-03-10T13:57:02.333Z,16.80
2023-03-10T14:02:05.088Z,16.90
2023-03-10T14:07:33.681Z,17.00
2023-03-10T14:12:37.169Z,17.60
2023-03-10T14:17:41.452Z,17.80
2023-03-10T14:22:43.630Z,18.00
2023-03-10T14:27:48.421Z,17.40
2023-03-10T14:32:50.581Z,17.20
2023-03-10T14:37:53.006Z,17.40
2023-03-10T14:42:57.498Z,17.80
2023-03-10T14:48:01.568Z,18.50
2023-03-10T14:53:03.928Z,19.50
2023-03-10T14:58:06.580Z,19.70
2023-03-10T15:03:09.940Z,19.40
2023-03-10T15:08:11.921Z,19.10
2023-03-10T15:13:14.072Z,19.20
2023-03-10T15:18:18.161Z,17.80
2023-03-10T15:23:22.424Z,16.90
2023-03-10T15:28:24.860Z,16.00
2023-03-10T15:33:26.897Z,15.40
2023-03-10T15:38:28.915Z,15.10
2023-03-10T15:43:30.970Z,14.30
2023-03-10T15:48:34.137Z,14.10
2023-03-10T15:53:36.674Z,14.00
2023-03-10T15:58:38.954Z,14.00
2023-03-10T16:03:40.970Z,13.90
2023-03-10T16:08:43.303Z,13.80
2023-03-10T16:13:46.747Z,13.70
2023-03-10T16:18:49.265Z,13.60
2023-03-10T16:23:51.280Z,13.40
2023-03-10T16:28:54.393Z,13.20
2023-03-10T16:33:57.431Z,13.10
2023-03-10T16:39:00.076Z,13.10
2023-03-10T16:44:05.741Z,12.80
2023-03-10T16:49:12.913Z,12.70
2023-03-10T16:54:16.458Z,12.60
2023-03-10T16:59:20.005Z,12.60
2023-03-10T17:04:22.241Z,12.40
2023-03-10T17:09:24.675Z,12.50
2023-03-10T17:14:26.701Z,12.10
2023-03-10T17:19:30.072Z,11.90
2023-03-10T17:24:32.426Z,11.80
2023-03-10T17:29:35.111Z,11.70
2023-03-10T17:34:37.171Z,11.60
2023-03-10T17:39:40.610Z,11.50
2023-03-10T17:44:42.834Z,11.40
2023-03-10T17:49:45.462Z,11.40
2023-03-10T17:54:47.516Z,11.40
2023-03-10T17:59:50.929Z,11.30
2023-03-10T18:04:52.953Z,11.00
2023-03-10T18:09:56.438Z,11.00
2023-03-10T18:14:58.459Z,11.00
2023-03-10T18:25:46.847Z,10.70
2023-03-10T18:30:50.005Z,10.60
2023-03-10T18:35:52.216Z,10.50
2023-03-10T18:40:58.414Z,10.50
2023-03-10T18:46:00.922Z,10.30
2023-03-10T18:51:03.172Z,10.10
2023-03-10T18:56:05.585Z,9.80
2023-03-10T19:01:11.604Z,9.40
2023-03-10T19:06:13.821Z,9.40
2023-03-10T19:11:15.867Z,9.10
2023-03-10T19:16:18.211Z,8.80
2023-03-10T19:21:22.585Z,9.00
2023-03-10T19:26:25.449Z,8.70
2023-03-10T19:31:27.584Z,8.70
2023-03-10T19:36:29.796Z,8.70
2023-03-10T19:41:31.893Z,8.70
2023-03-10T19:46:33.975Z,8.60
2023-03-10T19:51:36.116Z,8.70
2023-03-10T19:56:38.122Z,8.40
2023-03-10T20:01:42.092Z,8.60
2023-03-10T20:06:44.281Z,8.50
2023-03-10T20:11:46.530Z,8.60
2023-03-10T20:16:49.017Z,8.50
2023-03-10T20:21:51.200Z,8.40
2023-03-10T20:26:53.296Z,8.30
2023-03-10T20:31:55.428Z,8.40
2023-03-10T20:36:57.476Z,8.40
2023-03-10T20:41:59.464Z,8.40
2023-03-10T20:47:01.545Z,8.40
2023-03-10T20:52:03.685Z,8.40
2023-03-10T20:57:05.715Z,8.30
2023-03-10T21:02:07.775Z,8.20
2023-03-10T21:07:10.151Z,8.20
2023-03-10T21:12:13.693Z,8.20
2023-03-10T21:17:15.890Z,8.30
2023-03-10T21:22:17.960Z,8.10
2023-03-10T21:27:20.904Z,8.20
2023-03-10T21:32:24.278Z,8.10
2023-03-10T21:37:27.326Z,8.20
2023-03-10T21:42:29.381Z,8.20
2023-03-10T21:47:31.410Z,8.10
2023-03-10T21:52:33.417Z,8.10
2023-03-10T21:57:35.509Z,8.10
2023-03-10T22:02:37.536Z,8.10
2023-03-10T22:07:40.134Z,8.00
2023-03-10T22:12:42.217Z,8.00
2023-03-10T22:17:44.462Z,8.10
2023-03-10T22:22:46.936Z,8.10
2023-03-10T22:27:50.827Z,8.20
2023-03-10T22:32:53.087Z,8.40
2023-03-10T22:37:55.214Z,8.20
2023-03-10T22:42:57.323Z,8.20
2023-03-10T22:48:01.354Z,8.00
2023-03-10T22:53:04.745Z,8.20
2023-03-10T22:58:07.201Z,7.80
2023-03-10T23:03:11.561Z,7.90
2023-03-10T23:08:14.132Z,7.80
2023-03-10T23:13:16.480Z,7.70
2023-03-10T23:18:19.721Z,7.20
2023-03-10T23:23:21.713Z,6.90
2023-03-10T23:28:23.906Z,6.60
2023-03-10T23:33:26.285Z,6.60
2023-03-10T23:38:28.394Z,6.30
2023-03-10T23:43:30.412Z,6.40
2023-03-10T23:48:32.926Z,6.30
2023-03-10T23:53:34.965Z,6.20
2023-03-10T23:58:37.062Z,6.20
